Tropical Cyclones
[Index]
Main Index Home Page Stock Weather Photos Extreme Storms Discussion Storm News and Storm Chasing Reports Tropical Cyclones / Hurricanes / Typhoons Weather Data and Links Wild Fires / Bushfires Weather Observation Techniques Weather Picture Catalogue Tornado Pictures and Reports Stock Video Footage and DVDs for sale
Season 2005-2006 Tropical Cyclone CLARE Track Map
Season 2005-2006 Summaries: [BoM-AU] [JTWC-AU] [JTWC-SIO] [JTWC-SPAC] [JTWC-SH]
<<- Previous TC | BoM 2005-2006 Season | Next TC ->>

click for intensity scale information  Lat/long Grid: Show Hide

 Date Labels: Show Hide

Bureau of Meteorology Tropical Cyclone Data

Name: CLARE
Number: 892 / 200506_05

06 Jan 2006 06:00 UTC to 10 Jan 2006 18:00 UTC

    date/time    lat    long    hPa   cat  kts
2006-01-06 06   11.3   129.1   1002         20          
2006-01-06 12   11.4   127.9   1000         25          
2006-01-06 18   11.8   126.5    996         25          
2006-01-07 00   12.7   125.3    996         25          
2006-01-07 06   13.6   124.2    996         35          
2006-01-07 12   14.5   123.2    994    1    40          
2006-01-07 18   15.4   121.8    990    1    45          
2006-01-08 00   16.0   120.6    982    2    50          
2006-01-08 06   16.5   119.9    982    2    50          
2006-01-08 12   17.4   119.2    982    2    50          
2006-01-08 18   18.1   118.3    972    2    60          
2006-01-08 21   18.5   117.9    972    2    60          
2006-01-09 00   18.8   117.7    964    3    70          
2006-01-09 03   19.3   117.4    960    3    75          
2006-01-09 06   19.7   117.1    960    3    75          
2006-01-09 09   20.1   116.8    960    3    75          
2006-01-09 12   20.4   116.6    960    3    75          
2006-01-09 15   20.7   116.4    964    3    70          
2006-01-09 18   20.9   116.3    968    3    65          
2006-01-09 21   21.3   116.2    968    3    65          
2006-01-10 00   21.7   116.3    972    2    60          
2006-01-10 03   22.2   116.2    974    2    55          
2006-01-10 06   22.6   116.2    974    2    55          
2006-01-10 09   22.8   116.2    982    2    50          
2006-01-10 12   23.0   116.2    990    1    40          
2006-01-10 15   23.3   116.2    992    1    35          
2006-01-10 18   23.6   116.2    996         30          
Winds are 10-min average.

Tropical cyclone tracks developed by Michael Bath using data from the Bureau of Meteorology and Google Maps.


[Australian Severe Weather index] [Copyright Notice] [Email Contacts] [Search This Site] [Privacy Policy]
Document: tropical_cyclone_clare.htm Updated: 29 June 2017